sensor_id;sensor_type;location;lat;lon;timestamp;P1;durP1;ratioP1;P2;durP2;ratioP2
3941;SDS011;1985;48.592;8.850;2022-11-15T00:00:27;14.05;;;4.68;;
3941;SDS011;1985;48.592;8.850;2022-11-15T00:02:53;16.60;;;4.80;;
3941;SDS011;1985;48.592;8.850;2022-11-15T00:05:20;15.73;;;5.78;;
3941;SDS011;1985;48.592;8.850;2022-11-15T00:07:46;18.57;;;6.83;;
3941;SDS011;1985;48.592;8.850;2022-11-15T00:10:11;16.13;;;6.35;;
3941;SDS011;1985;48.592;8.850;2022-11-15T00:12:37;17.50;;;5.63;;
3941;SDS011;1985;48.592;8.850;2022-11-15T00:15:03;16.50;;;5.70;;
3941;SDS011;1985;48.592;8.850;2022-11-15T00:17:29;14.80;;;5.50;;
3941;SDS011;1985;48.592;8.850;2022-11-15T00:19:55;16.00;;;5.80;;
3941;SDS011;1985;48.592;8.850;2022-11-15T00:22:21;18.27;;;5.57;;
3941;SDS011;1985;48.592;8.850;2022-11-15T00:24:46;16.13;;;6.32;;
3941;SDS011;1985;48.592;8.850;2022-11-15T00:27:12;14.70;;;5.70;;
3941;SDS011;1985;48.592;8.850;2022-11-15T00:29:38;22.75;;;6.50;;
3941;SDS011;1985;48.592;8.850;2022-11-15T00:32:08;12.98;;;5.03;;
3941;SDS011;1985;48.592;8.850;2022-11-15T00:34:34;13.80;;;5.30;;
3941;SDS011;1985;48.592;8.850;2022-11-15T00:37:00;18.53;;;5.90;;
3941;SDS011;1985;48.592;8.850;2022-11-15T00:39:25;30.85;;;14.23;;
3941;SDS011;1985;48.592;8.850;2022-11-15T00:41:51;14.93;;;6.10;;
3941;SDS011;1985;48.592;8.850;2022-11-15T00:44:17;19.23;;;7.07;;
3941;SDS011;1985;48.592;8.850;2022-11-15T00:46:42;16.03;;;5.77;;
3941;SDS011;1985;48.592;8.850;2022-11-15T00:49:08;15.55;;;5.95;;
3941;SDS011;1985;48.592;8.850;2022-11-15T00:51:33;15.40;;;5.60;;
3941;SDS011;1985;48.592;8.850;2022-11-15T00:53:59;13.93;;;5.30;;
3941;SDS011;1985;48.592;8.850;2022-11-15T00:56:24;16.60;;;5.77;;
3941;SDS011;1985;48.592;8.850;2022-11-15T00:58:50;15.60;;;5.60;;
3941;SDS011;1985;48.592;8.850;2022-11-15T01:01:17;13.40;;;4.80;;
3941;SDS011;1985;48.592;8.850;2022-11-15T01:03:42;15.03;;;4.77;;
3941;SDS011;1985;48.592;8.850;2022-11-15T01:06:08;13.68;;;4.90;;
3941;SDS011;1985;48.592;8.850;2022-11-15T01:08:34;13.50;;;5.00;;
3941;SDS011;1985;48.592;8.850;2022-11-15T01:11:00;13.17;;;4.00;;
3941;SDS011;1985;48.592;8.850;2022-11-15T01:13:31;14.90;;;4.10;;
3941;SDS011;1985;48.592;8.850;2022-11-15T01:15:58;14.50;;;4.63;;
3941;SDS011;1985;48.592;8.850;2022-11-15T01:18:30;15.43;;;4.50;;
3941;SDS011;1985;48.592;8.850;2022-11-15T01:20:55;15.85;;;4.68;;
3941;SDS011;1985;48.592;8.850;2022-11-15T01:23:21;13.13;;;4.40;;
3941;SDS011;1985;48.592;8.850;2022-11-15T01:25:46;13.85;;;4.93;;
3941;SDS011;1985;48.592;8.850;2022-11-15T01:28:12;12.43;;;4.43;;
3941;SDS011;1985;48.592;8.850;2022-11-15T01:30:38;13.93;;;4.40;;
3941;SDS011;1985;48.592;8.850;2022-11-15T01:33:03;12.90;;;4.37;;
3941;SDS011;1985;48.592;8.850;2022-11-15T01:35:29;14.00;;;3.93;;
3941;SDS011;1985;48.592;8.850;2022-11-15T01:37:54;13.60;;;4.00;;
3941;SDS011;1985;48.592;8.850;2022-11-15T01:40:20;12.60;;;3.70;;
3941;SDS011;1985;48.592;8.850;2022-11-15T01:42:46;12.63;;;4.18;;
3941;SDS011;1985;48.592;8.850;2022-11-15T01:45:15;12.83;;;4.10;;
3941;SDS011;1985;48.592;8.850;2022-11-15T01:47:42;15.02;;;3.85;;
3941;SDS011;1985;48.592;8.850;2022-11-15T01:50:12;11.70;;;3.60;;
3941;SDS011;1985;48.592;8.850;2022-11-15T01:52:42;11.07;;;2.97;;
3941;SDS011;1985;48.592;8.850;2022-11-15T01:55:13;12.25;;;3.50;;
3941;SDS011;1985;48.592;8.850;2022-11-15T01:57:45;11.55;;;3.60;;
3941;SDS011;1985;48.592;8.850;2022-11-15T02:00:13;11.18;;;3.38;;
3941;SDS011;1985;48.592;8.850;2022-11-15T02:02:39;11.90;;;4.18;;
3941;SDS011;1985;48.592;8.850;2022-11-15T02:05:05;12.18;;;3.50;;
3941;SDS011;1985;48.592;8.850;2022-11-15T02:07:31;13.10;;;3.30;;
3941;SDS011;1985;48.592;8.850;2022-11-15T02:09:59;11.00;;;3.17;;
3941;SDS011;1985;48.592;8.850;2022-11-15T02:12:35;12.52;;;3.70;;
3941;SDS011;1985;48.592;8.850;2022-11-15T02:15:02;10.68;;;3.42;;
3941;SDS011;1985;48.592;8.850;2022-11-15T02:20:08;10.35;;;2.95;;
3941;SDS011;1985;48.592;8.850;2022-11-15T02:31:14;13.50;;;3.22;;
3941;SDS011;1985;48.592;8.850;2022-11-15T02:34:20;14.23;;;3.70;;
3941;SDS011;1985;48.592;8.850;2022-11-15T02:37:01;13.27;;;3.65;;
3941;SDS011;1985;48.592;8.850;2022-11-15T02:39:51;11.55;;;3.70;;
3941;SDS011;1985;48.592;8.850;2022-11-15T02:42:26;11.15;;;3.50;;
3941;SDS011;1985;48.592;8.850;2022-11-15T02:45:27;10.70;;;3.20;;
3941;SDS011;1985;48.592;8.850;2022-11-15T02:47:56;11.45;;;3.30;;
3941;SDS011;1985;48.592;8.850;2022-11-15T02:50:27;11.70;;;3.50;;
3941;SDS011;1985;48.592;8.850;2022-11-15T02:52:54;11.00;;;3.30;;
3941;SDS011;1985;48.592;8.850;2022-11-15T03:01:20;15.05;;;3.58;;
3941;SDS011;1985;48.592;8.850;2022-11-15T03:09:02;12.70;;;2.90;;
3941;SDS011;1985;48.592;8.850;2022-11-15T03:11:33;11.93;;;3.33;;
3941;SDS011;1985;48.592;8.850;2022-11-15T03:19:44;10.80;;;3.17;;
3941;SDS011;1985;48.592;8.850;2022-11-15T03:22:17;13.80;;;3.50;;
3941;SDS011;1985;48.592;8.850;2022-11-15T03:24:45;12.70;;;3.30;;
3941;SDS011;1985;48.592;8.850;2022-11-15T03:27:15;10.80;;;2.97;;
3941;SDS011;1985;48.592;8.850;2022-11-15T03:29:46;13.93;;;3.60;;
3941;SDS011;1985;48.592;8.850;2022-11-15T03:32:20;11.45;;;3.70;;
3941;SDS011;1985;48.592;8.850;2022-11-15T03:37:24;10.20;;;2.90;;
3941;SDS011;1985;48.592;8.850;2022-11-15T03:39:55;11.00;;;3.30;;
3941;SDS011;1985;48.592;8.850;2022-11-15T03:42:31;10.57;;;3.10;;
3941;SDS011;1985;48.592;8.850;2022-11-15T03:47:49;11.20;;;2.97;;
3941;SDS011;1985;48.592;8.850;2022-11-15T03:50:19;13.68;;;3.10;;
3941;SDS011;1985;48.592;8.850;2022-11-15T03:52:47;11.23;;;3.22;;
3941;SDS011;1985;48.592;8.850;2022-11-15T03:55:16;12.03;;;3.30;;
3941;SDS011;1985;48.592;8.850;2022-11-15T03:57:43;11.95;;;3.30;;
3941;SDS011;1985;48.592;8.850;2022-11-15T04:00:09;11.05;;;3.13;;
3941;SDS011;1985;48.592;8.850;2022-11-15T04:02:36;10.60;;;2.80;;
3941;SDS011;1985;48.592;8.850;2022-11-15T04:05:02;10.73;;;3.00;;
3941;SDS011;1985;48.592;8.850;2022-11-15T04:07:28;12.95;;;3.05;;
3941;SDS011;1985;48.592;8.850;2022-11-15T04:09:53;16.05;;;2.95;;
3941;SDS011;1985;48.592;8.850;2022-11-15T04:12:31;9.50;;;2.78;;
3941;SDS011;1985;48.592;8.850;2022-11-15T04:17:49;13.45;;;3.20;;
3941;SDS011;1985;48.592;8.850;2022-11-15T04:23:09;10.50;;;2.70;;
3941;SDS011;1985;48.592;8.850;2022-11-15T04:25:54;10.30;;;2.80;;
3941;SDS011;1985;48.592;8.850;2022-11-15T04:28:21;11.95;;;3.05;;
3941;SDS011;1985;48.592;8.850;2022-11-15T04:30:47;10.63;;;3.20;;
3941;SDS011;1985;48.592;8.850;2022-11-15T04:33:13;13.27;;;3.20;;
3941;SDS011;1985;48.592;8.850;2022-11-15T04:35:38;12.30;;;3.78;;
3941;SDS011;1985;48.592;8.850;2022-11-15T04:38:05;9.88;;;2.60;;
3941;SDS011;1985;48.592;8.850;2022-11-15T04:40:32;12.02;;;3.50;;
3941;SDS011;1985;48.592;8.850;2022-11-15T04:42:58;10.47;;;3.10;;
3941;SDS011;1985;48.592;8.850;2022-11-15T04:45:24;11.60;;;2.95;;
3941;SDS011;1985;48.592;8.850;2022-11-15T04:47:49;10.40;;;2.67;;
3941;SDS011;1985;48.592;8.850;2022-11-15T04:50:15;11.18;;;2.88;;
3941;SDS011;1985;48.592;8.850;2022-11-15T04:52:42;10.73;;;2.80;;
3941;SDS011;1985;48.592;8.850;2022-11-15T04:55:16;10.73;;;3.20;;
3941;SDS011;1985;48.592;8.850;2022-11-15T04:57:41;12.70;;;3.10;;
3941;SDS011;1985;48.592;8.850;2022-11-15T05:00:09;10.25;;;3.00;;
3941;SDS011;1985;48.592;8.850;2022-11-15T05:02:36;27.80;;;6.95;;
3941;SDS011;1985;48.592;8.850;2022-11-15T05:05:24;47.50;;;13.40;;
3941;SDS011;1985;48.592;8.850;2022-11-15T05:07:50;68.35;;;17.83;;
3941;SDS011;1985;48.592;8.850;2022-11-15T05:10:15;53.35;;;14.90;;
3941;SDS011;1985;48.592;8.850;2022-11-15T05:12:41;62.75;;;17.35;;
3941;SDS011;1985;48.592;8.850;2022-11-15T05:15:07;58.17;;;15.57;;
3941;SDS011;1985;48.592;8.850;2022-11-15T05:17:33;62.17;;;16.95;;
3941;SDS011;1985;48.592;8.850;2022-11-15T05:19:59;50.00;;;13.43;;
3941;SDS011;1985;48.592;8.850;2022-11-15T05:22:25;94.80;;;21.38;;
3941;SDS011;1985;48.592;8.850;2022-11-15T05:24:50;70.90;;;17.57;;
3941;SDS011;1985;48.592;8.850;2022-11-15T05:27:16;65.85;;;16.55;;
3941;SDS011;1985;48.592;8.850;2022-11-15T05:29:42;65.10;;;17.30;;
3941;SDS011;1985;48.592;8.850;2022-11-15T05:32:08;70.10;;;18.20;;
3941;SDS011;1985;48.592;8.850;2022-11-15T05:34:36;60.30;;;14.18;;
3941;SDS011;1985;48.592;8.850;2022-11-15T05:37:02;49.50;;;13.43;;
3941;SDS011;1985;48.592;8.850;2022-11-15T05:39:28;39.38;;;12.52;;
3941;SDS011;1985;48.592;8.850;2022-11-15T05:41:55;25.90;;;8.33;;
3941;SDS011;1985;48.592;8.850;2022-11-15T05:44:26;32.13;;;9.43;;
3941;SDS011;1985;48.592;8.850;2022-11-15T05:46:52;43.25;;;11.65;;
3941;SDS011;1985;48.592;8.850;2022-11-15T05:49:21;40.25;;;11.07;;
3941;SDS011;1985;48.592;8.850;2022-11-15T05:51:49;26.38;;;8.05;;
3941;SDS011;1985;48.592;8.850;2022-11-15T05:54:16;30.33;;;8.98;;
3941;SDS011;1985;48.592;8.850;2022-11-15T05:56:44;19.10;;;6.27;;
3941;SDS011;1985;48.592;8.850;2022-11-15T05:59:10;27.43;;;8.10;;
3941;SDS011;1985;48.592;8.850;2022-11-15T06:01:36;29.40;;;9.35;;
3941;SDS011;1985;48.592;8.850;2022-11-15T06:04:03;19.55;;;5.72;;
3941;SDS011;1985;48.592;8.850;2022-11-15T06:06:29;24.17;;;6.70;;
3941;SDS011;1985;48.592;8.850;2022-11-15T06:08:54;20.63;;;6.47;;
3941;SDS011;1985;48.592;8.850;2022-11-15T06:11:20;18.52;;;5.25;;
3941;SDS011;1985;48.592;8.850;2022-11-15T06:13:45;18.73;;;5.10;;
3941;SDS011;1985;48.592;8.850;2022-11-15T06:16:11;17.98;;;5.13;;
3941;SDS011;1985;48.592;8.850;2022-11-15T06:18:37;15.77;;;4.57;;
3941;SDS011;1985;48.592;8.850;2022-11-15T06:21:03;14.80;;;4.60;;
3941;SDS011;1985;48.592;8.850;2022-11-15T06:23:31;14.05;;;3.90;;
3941;SDS011;1985;48.592;8.850;2022-11-15T06:25:58;15.02;;;4.60;;
3941;SDS011;1985;48.592;8.850;2022-11-15T06:28:27;16.02;;;4.80;;
3941;SDS011;1985;48.592;8.850;2022-11-15T06:30:54;16.20;;;4.20;;
3941;SDS011;1985;48.592;8.850;2022-11-15T06:33:20;15.55;;;4.38;;
3941;SDS011;1985;48.592;8.850;2022-11-15T06:35:45;14.48;;;4.60;;
3941;SDS011;1985;48.592;8.850;2022-11-15T06:38:11;14.70;;;4.73;;
3941;SDS011;1985;48.592;8.850;2022-11-15T06:40:39;17.85;;;5.18;;
3941;SDS011;1985;48.592;8.850;2022-11-15T06:43:05;13.40;;;4.20;;
3941;SDS011;1985;48.592;8.850;2022-11-15T06:45:31;13.20;;;3.75;;
3941;SDS011;1985;48.592;8.850;2022-11-15T06:47:57;15.05;;;4.80;;
3941;SDS011;1985;48.592;8.850;2022-11-15T06:50:23;13.60;;;4.40;;
3941;SDS011;1985;48.592;8.850;2022-11-15T06:52:49;12.52;;;4.35;;
3941;SDS011;1985;48.592;8.850;2022-11-15T06:55:15;17.10;;;4.50;;
3941;SDS011;1985;48.592;8.850;2022-11-15T06:57:47;14.32;;;3.92;;
3941;SDS011;1985;48.592;8.850;2022-11-15T07:00:14;15.00;;;4.47;;
3941;SDS011;1985;48.592;8.850;2022-11-15T07:02:41;18.80;;;4.75;;
3941;SDS011;1985;48.592;8.850;2022-11-15T07:05:06;14.73;;;4.47;;
3941;SDS011;1985;48.592;8.850;2022-11-15T07:07:32;12.40;;;3.60;;
3941;SDS011;1985;48.592;8.850;2022-11-15T07:09:57;12.70;;;3.90;;
3941;SDS011;1985;48.592;8.850;2022-11-15T07:12:23;15.93;;;4.70;;
3941;SDS011;1985;48.592;8.850;2022-11-15T07:14:49;12.60;;;4.80;;
3941;SDS011;1985;48.592;8.850;2022-11-15T07:17:14;19.65;;;6.55;;
3941;SDS011;1985;48.592;8.850;2022-11-15T07:19:40;17.47;;;5.20;;
3941;SDS011;1985;48.592;8.850;2022-11-15T07:22:05;15.57;;;3.58;;
3941;SDS011;1985;48.592;8.850;2022-11-15T07:24:31;12.30;;;3.47;;
3941;SDS011;1985;48.592;8.850;2022-11-15T07:26:57;16.50;;;5.35;;
3941;SDS011;1985;48.592;8.850;2022-11-15T07:29:22;17.20;;;6.17;;
3941;SDS011;1985;48.592;8.850;2022-11-15T07:31:48;26.40;;;8.65;;
3941;SDS011;1985;48.592;8.850;2022-11-15T07:34:15;21.67;;;7.85;;
3941;SDS011;1985;48.592;8.850;2022-11-15T07:36:41;16.38;;;5.57;;
3941;SDS011;1985;48.592;8.850;2022-11-15T07:39:06;15.20;;;4.10;;
3941;SDS011;1985;48.592;8.850;2022-11-15T07:41:32;13.75;;;4.72;;
3941;SDS011;1985;48.592;8.850;2022-11-15T07:43:58;16.98;;;4.30;;
3941;SDS011;1985;48.592;8.850;2022-11-15T07:46:23;16.53;;;4.30;;
3941;SDS011;1985;48.592;8.850;2022-11-15T07:48:49;20.70;;;4.50;;
3941;SDS011;1985;48.592;8.850;2022-11-15T07:51:15;15.77;;;5.53;;
3941;SDS011;1985;48.592;8.850;2022-11-15T07:53:42;14.55;;;4.22;;
3941;SDS011;1985;48.592;8.850;2022-11-15T07:56:08;13.10;;;4.10;;
3941;SDS011;1985;48.592;8.850;2022-11-15T07:58:35;15.52;;;4.72;;
3941;SDS011;1985;48.592;8.850;2022-11-15T08:01:04;17.55;;;4.80;;
3941;SDS011;1985;48.592;8.850;2022-11-15T08:03:31;13.65;;;3.97;;
3941;SDS011;1985;48.592;8.850;2022-11-15T08:05:58;11.90;;;3.85;;
3941;SDS011;1985;48.592;8.850;2022-11-15T08:08:23;14.15;;;4.30;;
3941;SDS011;1985;48.592;8.850;2022-11-15T08:10:49;12.60;;;3.33;;
3941;SDS011;1985;48.592;8.850;2022-11-15T08:13:15;15.23;;;3.50;;
3941;SDS011;1985;48.592;8.850;2022-11-15T08:15:41;17.17;;;3.83;;
3941;SDS011;1985;48.592;8.850;2022-11-15T08:18:11;11.73;;;3.15;;
3941;SDS011;1985;48.592;8.850;2022-11-15T08:20:39;10.30;;;2.90;;
3941;SDS011;1985;48.592;8.850;2022-11-15T08:23:06;17.50;;;3.13;;
3941;SDS011;1985;48.592;8.850;2022-11-15T08:25:33;9.65;;;2.45;;
3941;SDS011;1985;48.592;8.850;2022-11-15T08:28:00;11.30;;;3.20;;
3941;SDS011;1985;48.592;8.850;2022-11-15T08:30:28;12.02;;;2.53;;
3941;SDS011;1985;48.592;8.850;2022-11-15T08:32:56;10.43;;;3.20;;
3941;SDS011;1985;48.592;8.850;2022-11-15T08:35:22;11.73;;;3.45;;
3941;SDS011;1985;48.592;8.850;2022-11-15T08:37:49;17.50;;;3.50;;
3941;SDS011;1985;48.592;8.850;2022-11-15T08:40:15;16.93;;;3.73;;
3941;SDS011;1985;48.592;8.850;2022-11-15T08:42:40;14.40;;;3.80;;
3941;SDS011;1985;48.592;8.850;2022-11-15T08:45:07;13.13;;;4.10;;
3941;SDS011;1985;48.592;8.850;2022-11-15T08:47:33;16.30;;;4.50;;
3941;SDS011;1985;48.592;8.850;2022-11-15T08:49:59;24.65;;;6.07;;
3941;SDS011;1985;48.592;8.850;2022-11-15T08:52:24;22.10;;;6.00;;
3941;SDS011;1985;48.592;8.850;2022-11-15T08:54:50;18.38;;;5.80;;
3941;SDS011;1985;48.592;8.850;2022-11-15T08:57:16;17.00;;;5.40;;
3941;SDS011;1985;48.592;8.850;2022-11-15T08:59:42;17.30;;;5.65;;
3941;SDS011;1985;48.592;8.850;2022-11-15T09:02:11;15.43;;;5.00;;
3941;SDS011;1985;48.592;8.850;2022-11-15T09:04:39;17.35;;;5.28;;
3941;SDS011;1985;48.592;8.850;2022-11-15T09:07:08;16.20;;;4.90;;
3941;SDS011;1985;48.592;8.850;2022-11-15T09:09:35;11.80;;;3.90;;
3941;SDS011;1985;48.592;8.850;2022-11-15T09:12:00;10.90;;;3.80;;
3941;SDS011;1985;48.592;8.850;2022-11-15T09:14:26;14.50;;;4.53;;
3941;SDS011;1985;48.592;8.850;2022-11-15T09:16:52;13.48;;;3.65;;
3941;SDS011;1985;48.592;8.850;2022-11-15T09:19:17;14.63;;;3.70;;
3941;SDS011;1985;48.592;8.850;2022-11-15T09:21:43;11.63;;;3.20;;
3941;SDS011;1985;48.592;8.850;2022-11-15T09:24:08;13.60;;;3.83;;
3941;SDS011;1985;48.592;8.850;2022-11-15T09:26:34;14.73;;;3.93;;
3941;SDS011;1985;48.592;8.850;2022-11-15T09:29:00;16.98;;;3.92;;
3941;SDS011;1985;48.592;8.850;2022-11-15T09:31:26;15.63;;;3.80;;
3941;SDS011;1985;48.592;8.850;2022-11-15T09:33:52;15.05;;;4.05;;
3941;SDS011;1985;48.592;8.850;2022-11-15T09:36:18;14.47;;;5.23;;
3941;SDS011;1985;48.592;8.850;2022-11-15T09:38:43;15.63;;;3.90;;
3941;SDS011;1985;48.592;8.850;2022-11-15T09:48:54;13.90;;;3.43;;
3941;SDS011;1985;48.592;8.850;2022-11-15T09:54:09;13.17;;;4.10;;
3941;SDS011;1985;48.592;8.850;2022-11-15T09:56:42;12.45;;;4.25;;
3941;SDS011;1985;48.592;8.850;2022-11-15T10:02:23;17.10;;;4.80;;
3941;SDS011;1985;48.592;8.850;2022-11-15T10:04:59;21.83;;;6.35;;
3941;SDS011;1985;48.592;8.850;2022-11-15T10:12:50;14.55;;;4.75;;
3941;SDS011;1985;48.592;8.850;2022-11-15T10:15:18;13.68;;;4.38;;
3941;SDS011;1985;48.592;8.850;2022-11-15T10:20:32;16.40;;;4.00;;
3941;SDS011;1985;48.592;8.850;2022-11-15T10:23:05;16.00;;;3.60;;
3941;SDS011;1985;48.592;8.850;2022-11-15T10:25:35;15.35;;;4.00;;
3941;SDS011;1985;48.592;8.850;2022-11-15T10:28:03;13.63;;;4.00;;
3941;SDS011;1985;48.592;8.850;2022-11-15T10:30:42;15.88;;;3.80;;
3941;SDS011;1985;48.592;8.850;2022-11-15T10:33:26;11.93;;;2.90;;
3941;SDS011;1985;48.592;8.850;2022-11-15T10:44:17;11.68;;;2.92;;
3941;SDS011;1985;48.592;8.850;2022-11-15T10:49:24;11.77;;;3.72;;
3941;SDS011;1985;48.592;8.850;2022-11-15T10:51:55;11.88;;;3.13;;
3941;SDS011;1985;48.592;8.850;2022-11-15T10:56:54;15.82;;;3.55;;
3941;SDS011;1985;48.592;8.850;2022-11-15T10:59:32;13.38;;;3.58;;
3941;SDS011;1985;48.592;8.850;2022-11-15T11:02:01;13.05;;;3.33;;
3941;SDS011;1985;48.592;8.850;2022-11-15T11:04:27;13.70;;;3.73;;
3941;SDS011;1985;48.592;8.850;2022-11-15T11:06:53;13.52;;;3.80;;
3941;SDS011;1985;48.592;8.850;2022-11-15T11:09:28;14.00;;;3.83;;
3941;SDS011;1985;48.592;8.850;2022-11-15T11:12:02;15.55;;;4.15;;
3941;SDS011;1985;48.592;8.850;2022-11-15T11:14:30;11.52;;;3.78;;
3941;SDS011;1985;48.592;8.850;2022-11-15T11:31:18;13.30;;;4.05;;
3941;SDS011;1985;48.592;8.850;2022-11-15T11:33:52;12.63;;;3.90;;
3941;SDS011;1985;48.592;8.850;2022-11-15T11:36:41;13.10;;;3.67;;
3941;SDS011;1985;48.592;8.850;2022-11-15T11:41:55;13.27;;;4.23;;
3941;SDS011;1985;48.592;8.850;2022-11-15T11:44:47;12.93;;;4.20;;
3941;SDS011;1985;48.592;8.850;2022-11-15T11:47:39;12.57;;;3.85;;
3941;SDS011;1985;48.592;8.850;2022-11-15T11:50:26;11.93;;;3.80;;
3941;SDS011;1985;48.592;8.850;2022-11-15T11:55:54;13.35;;;4.07;;
3941;SDS011;1985;48.592;8.850;2022-11-15T12:03:54;12.15;;;3.70;;
3941;SDS011;1985;48.592;8.850;2022-11-15T12:09:36;12.27;;;3.70;;
3941;SDS011;1985;48.592;8.850;2022-11-15T12:15:04;12.90;;;4.20;;
3941;SDS011;1985;48.592;8.850;2022-11-15T12:17:35;13.87;;;3.70;;
3941;SDS011;1985;48.592;8.850;2022-11-15T12:20:03;15.52;;;3.72;;
3941;SDS011;1985;48.592;8.850;2022-11-15T12:22:41;11.80;;;3.65;;
3941;SDS011;1985;48.592;8.850;2022-11-15T12:25:31;12.73;;;3.90;;
3941;SDS011;1985;48.592;8.850;2022-11-15T12:28:08;11.93;;;3.30;;
3941;SDS011;1985;48.592;8.850;2022-11-15T12:31:04;13.53;;;3.50;;
3941;SDS011;1985;48.592;8.850;2022-11-15T12:33:57;10.48;;;2.90;;
3941;SDS011;1985;48.592;8.850;2022-11-15T12:41:22;11.10;;;3.40;;
3941;SDS011;1985;48.592;8.850;2022-11-15T12:43:53;12.85;;;3.13;;
3941;SDS011;1985;48.592;8.850;2022-11-15T12:46:21;12.55;;;3.60;;
3941;SDS011;1985;48.592;8.850;2022-11-15T12:48:59;10.75;;;3.00;;
3941;SDS011;1985;48.592;8.850;2022-11-15T13:17:51;13.27;;;3.75;;
3941;SDS011;1985;48.592;8.850;2022-11-15T13:20:28;12.55;;;3.72;;
3941;SDS011;1985;48.592;8.850;2022-11-15T13:33:20;14.88;;;3.60;;
3941;SDS011;1985;48.592;8.850;2022-11-15T13:35:56;12.40;;;4.00;;
3941;SDS011;1985;48.592;8.850;2022-11-15T13:38:33;16.40;;;4.25;;
3941;SDS011;1985;48.592;8.850;2022-11-15T13:41:22;12.27;;;4.30;;
3941;SDS011;1985;48.592;8.850;2022-11-15T13:43:52;17.70;;;5.38;;
3941;SDS011;1985;48.592;8.850;2022-11-15T13:46:26;14.90;;;4.90;;
3941;SDS011;1985;48.592;8.850;2022-11-15T13:48:57;13.82;;;4.40;;
3941;SDS011;1985;48.592;8.850;2022-11-15T13:51:29;14.50;;;5.30;;
3941;SDS011;1985;48.592;8.850;2022-11-15T13:56:36;13.43;;;4.30;;
3941;SDS011;1985;48.592;8.850;2022-11-15T13:59:10;13.88;;;5.28;;
3941;SDS011;1985;48.592;8.850;2022-11-15T14:01:42;14.70;;;5.10;;
3941;SDS011;1985;48.592;8.850;2022-11-15T14:04:11;13.10;;;4.20;;
3941;SDS011;1985;48.592;8.850;2022-11-15T14:06:47;13.38;;;4.78;;
3941;SDS011;1985;48.592;8.850;2022-11-15T14:09:36;13.25;;;4.63;;
3941;SDS011;1985;48.592;8.850;2022-11-15T14:12:20;13.98;;;4.70;;
3941;SDS011;1985;48.592;8.850;2022-11-15T14:14:50;14.15;;;4.80;;
3941;SDS011;1985;48.592;8.850;2022-11-15T14:19:53;14.57;;;4.90;;
3941;SDS011;1985;48.592;8.850;2022-11-15T14:22:25;16.55;;;5.13;;
3941;SDS011;1985;48.592;8.850;2022-11-15T14:27:39;13.70;;;4.40;;
3941;SDS011;1985;48.592;8.850;2022-11-15T14:30:06;14.80;;;4.93;;
3941;SDS011;1985;48.592;8.850;2022-11-15T14:32:48;13.05;;;4.80;;
3941;SDS011;1985;48.592;8.850;2022-11-15T14:35:16;17.10;;;5.50;;
3941;SDS011;1985;48.592;8.850;2022-11-15T14:37:44;13.02;;;4.28;;
3941;SDS011;1985;48.592;8.850;2022-11-15T14:40:15;15.13;;;4.70;;
3941;SDS011;1985;48.592;8.850;2022-11-15T14:42:45;13.32;;;4.47;;
3941;SDS011;1985;48.592;8.850;2022-11-15T14:45:14;13.40;;;4.30;;
3941;SDS011;1985;48.592;8.850;2022-11-15T14:47:42;15.67;;;4.80;;
3941;SDS011;1985;48.592;8.850;2022-11-15T14:50:21;16.00;;;4.05;;
3941;SDS011;1985;48.592;8.850;2022-11-15T14:52:47;27.23;;;4.93;;
3941;SDS011;1985;48.592;8.850;2022-11-15T14:57:44;24.00;;;4.75;;
3941;SDS011;1985;48.592;8.850;2022-11-15T15:00:10;25.20;;;4.72;;
3941;SDS011;1985;48.592;8.850;2022-11-15T15:02:37;20.25;;;4.70;;
3941;SDS011;1985;48.592;8.850;2022-11-15T15:05:11;17.52;;;4.05;;
3941;SDS011;1985;48.592;8.850;2022-11-15T15:07:42;13.18;;;4.38;;
3941;SDS011;1985;48.592;8.850;2022-11-15T15:10:08;15.30;;;4.67;;
3941;SDS011;1985;48.592;8.850;2022-11-15T15:12:35;13.77;;;5.07;;
3941;SDS011;1985;48.592;8.850;2022-11-15T15:15:00;14.13;;;4.73;;
3941;SDS011;1985;48.592;8.850;2022-11-15T15:17:26;12.50;;;4.40;;
3941;SDS011;1985;48.592;8.850;2022-11-15T15:19:51;19.02;;;4.93;;
3941;SDS011;1985;48.592;8.850;2022-11-15T15:22:18;16.23;;;4.37;;
3941;SDS011;1985;48.592;8.850;2022-11-15T15:24:46;18.23;;;5.25;;
3941;SDS011;1985;48.592;8.850;2022-11-15T15:27:13;26.08;;;5.40;;
3941;SDS011;1985;48.592;8.850;2022-11-15T15:29:39;15.50;;;5.00;;
3941;SDS011;1985;48.592;8.850;2022-11-15T15:32:05;22.17;;;4.55;;
3941;SDS011;1985;48.592;8.850;2022-11-15T15:34:31;16.60;;;4.57;;
3941;SDS011;1985;48.592;8.850;2022-11-15T15:39:54;14.32;;;3.58;;
3941;SDS011;1985;48.592;8.850;2022-11-15T15:42:21;15.15;;;4.00;;
3941;SDS011;1985;48.592;8.850;2022-11-15T15:44:47;16.83;;;3.90;;
3941;SDS011;1985;48.592;8.850;2022-11-15T15:47:15;12.80;;;3.72;;
3941;SDS011;1985;48.592;8.850;2022-11-15T15:49:45;12.13;;;3.80;;
3941;SDS011;1985;48.592;8.850;2022-11-15T15:52:11;12.20;;;3.92;;
3941;SDS011;1985;48.592;8.850;2022-11-15T15:54:37;13.27;;;4.00;;
3941;SDS011;1985;48.592;8.850;2022-11-15T15:57:05;14.02;;;4.70;;
3941;SDS011;1985;48.592;8.850;2022-11-15T15:59:31;12.38;;;4.50;;
3941;SDS011;1985;48.592;8.850;2022-11-15T16:01:56;14.23;;;4.55;;
3941;SDS011;1985;48.592;8.850;2022-11-15T16:04:22;14.23;;;4.50;;
3941;SDS011;1985;48.592;8.850;2022-11-15T16:06:49;14.32;;;4.35;;
3941;SDS011;1985;48.592;8.850;2022-11-15T16:09:17;16.38;;;4.72;;
3941;SDS011;1985;48.592;8.850;2022-11-15T16:12:04;14.82;;;4.30;;
3941;SDS011;1985;48.592;8.850;2022-11-15T16:14:30;15.85;;;4.25;;
3941;SDS011;1985;48.592;8.850;2022-11-15T16:16:56;13.07;;;4.22;;
3941;SDS011;1985;48.592;8.850;2022-11-15T16:19:22;17.77;;;4.23;;
3941;SDS011;1985;48.592;8.850;2022-11-15T16:21:47;17.23;;;5.53;;
3941;SDS011;1985;48.592;8.850;2022-11-15T16:24:13;12.87;;;4.50;;
3941;SDS011;1985;48.592;8.850;2022-11-15T16:26:38;13.02;;;4.55;;
3941;SDS011;1985;48.592;8.850;2022-11-15T16:29:04;14.30;;;4.00;;
3941;SDS011;1985;48.592;8.850;2022-11-15T16:31:31;14.18;;;4.40;;
3941;SDS011;1985;48.592;8.850;2022-11-15T16:33:57;14.98;;;4.30;;
3941;SDS011;1985;48.592;8.850;2022-11-15T16:36:23;14.63;;;4.40;;
3941;SDS011;1985;48.592;8.850;2022-11-15T16:38:50;14.07;;;4.35;;
3941;SDS011;1985;48.592;8.850;2022-11-15T16:41:17;15.85;;;4.80;;
3941;SDS011;1985;48.592;8.850;2022-11-15T16:43:44;16.60;;;5.50;;
3941;SDS011;1985;48.592;8.850;2022-11-15T16:46:17;14.55;;;4.85;;
3941;SDS011;1985;48.592;8.850;2022-11-15T16:48:45;16.40;;;5.75;;
3941;SDS011;1985;48.592;8.850;2022-11-15T16:51:11;15.02;;;4.97;;
3941;SDS011;1985;48.592;8.850;2022-11-15T16:53:36;12.98;;;4.40;;
3941;SDS011;1985;48.592;8.850;2022-11-15T16:56:02;13.93;;;4.77;;
3941;SDS011;1985;48.592;8.850;2022-11-15T16:58:28;13.32;;;4.80;;
3941;SDS011;1985;48.592;8.850;2022-11-15T17:00:54;15.82;;;5.15;;
3941;SDS011;1985;48.592;8.850;2022-11-15T17:03:24;17.30;;;4.85;;
3941;SDS011;1985;48.592;8.850;2022-11-15T17:05:49;13.23;;;4.40;;
3941;SDS011;1985;48.592;8.850;2022-11-15T17:08:15;14.05;;;4.50;;
3941;SDS011;1985;48.592;8.850;2022-11-15T17:10:41;15.13;;;4.80;;
3941;SDS011;1985;48.592;8.850;2022-11-15T17:13:16;16.58;;;6.10;;
3941;SDS011;1985;48.592;8.850;2022-11-15T17:15:41;17.95;;;5.68;;
3941;SDS011;1985;48.592;8.850;2022-11-15T17:18:10;15.23;;;5.70;;
3941;SDS011;1985;48.592;8.850;2022-11-15T17:20:39;14.38;;;5.57;;
3941;SDS011;1985;48.592;8.850;2022-11-15T17:23:08;15.77;;;5.43;;
3941;SDS011;1985;48.592;8.850;2022-11-15T17:25:38;17.23;;;6.10;;
3941;SDS011;1985;48.592;8.850;2022-11-15T17:28:04;14.10;;;4.93;;
3941;SDS011;1985;48.592;8.850;2022-11-15T17:30:29;14.73;;;5.32;;
3941;SDS011;1985;48.592;8.850;2022-11-15T17:32:55;15.87;;;5.50;;
3941;SDS011;1985;48.592;8.850;2022-11-15T17:35:20;14.60;;;5.07;;
3941;SDS011;1985;48.592;8.850;2022-11-15T17:37:46;14.00;;;5.50;;
3941;SDS011;1985;48.592;8.850;2022-11-15T17:40:12;13.45;;;4.82;;
3941;SDS011;1985;48.592;8.850;2022-11-15T17:42:41;14.18;;;4.70;;
3941;SDS011;1985;48.592;8.850;2022-11-15T17:45:06;16.17;;;5.10;;
3941;SDS011;1985;48.592;8.850;2022-11-15T17:47:33;13.70;;;4.65;;
3941;SDS011;1985;48.592;8.850;2022-11-15T17:49:58;12.40;;;4.60;;